sensor_id;sensor_type;location;lat;lon;timestamp;P1;durP1;ratioP1;P2;durP2;ratioP2
7215;SDS011;3649;48.798;9.798;2024-02-14T00:00:23;12.10;;;8.63;;
7215;SDS011;3649;48.798;9.798;2024-02-14T00:02:51;15.53;;;8.60;;
7215;SDS011;3649;48.798;9.798;2024-02-14T00:05:18;22.30;;;8.83;;
7215;SDS011;3649;48.798;9.798;2024-02-14T00:07:44;12.40;;;7.03;;
7215;SDS011;3649;48.798;9.798;2024-02-14T00:10:11;8.00;;;6.37;;
7215;SDS011;3649;48.798;9.798;2024-02-14T00:12:38;11.20;;;7.00;;
7215;SDS011;3649;48.798;9.798;2024-02-14T00:15:06;9.23;;;6.90;;
7215;SDS011;3649;48.798;9.798;2024-02-14T00:17:34;8.03;;;5.83;;
7215;SDS011;3649;48.798;9.798;2024-02-14T00:20:02;7.73;;;5.83;;
7215;SDS011;3649;48.798;9.798;2024-02-14T00:22:30;8.10;;;6.47;;
7215;SDS011;3649;48.798;9.798;2024-02-14T00:24:57;7.53;;;5.57;;
7215;SDS011;3649;48.798;9.798;2024-02-14T00:27:24;6.53;;;5.17;;
7215;SDS011;3649;48.798;9.798;2024-02-14T00:29:53;10.80;;;6.70;;
7215;SDS011;3649;48.798;9.798;2024-02-14T00:32:21;7.40;;;5.97;;
7215;SDS011;3649;48.798;9.798;2024-02-14T00:34:48;8.43;;;6.10;;
7215;SDS011;3649;48.798;9.798;2024-02-14T00:37:16;11.40;;;6.20;;
7215;SDS011;3649;48.798;9.798;2024-02-14T00:39:45;7.13;;;5.63;;
7215;SDS011;3649;48.798;9.798;2024-02-14T00:42:15;9.63;;;5.33;;
7215;SDS011;3649;48.798;9.798;2024-02-14T00:44:42;8.57;;;5.13;;
7215;SDS011;3649;48.798;9.798;2024-02-14T00:47:09;6.50;;;5.80;;
7215;SDS011;3649;48.798;9.798;2024-02-14T00:49:36;8.60;;;5.50;;
7215;SDS011;3649;48.798;9.798;2024-02-14T00:52:05;5.50;;;4.70;;
7215;SDS011;3649;48.798;9.798;2024-02-14T00:54:32;7.40;;;5.80;;
7215;SDS011;3649;48.798;9.798;2024-02-14T00:56:59;9.73;;;5.70;;
7215;SDS011;3649;48.798;9.798;2024-02-14T00:59:26;11.20;;;5.60;;
7215;SDS011;3649;48.798;9.798;2024-02-14T01:01:53;9.43;;;5.30;;
7215;SDS011;3649;48.798;9.798;2024-02-14T01:04:20;8.63;;;5.33;;
7215;SDS011;3649;48.798;9.798;2024-02-14T01:06:48;8.23;;;5.40;;
7215;SDS011;3649;48.798;9.798;2024-02-14T01:09:16;6.73;;;5.80;;
7215;SDS011;3649;48.798;9.798;2024-02-14T01:11:43;11.40;;;5.77;;
7215;SDS011;3649;48.798;9.798;2024-02-14T01:14:10;6.63;;;5.40;;
7215;SDS011;3649;48.798;9.798;2024-02-14T01:16:43;7.00;;;4.60;;
7215;SDS011;3649;48.798;9.798;2024-02-14T01:19:11;7.73;;;5.63;;
7215;SDS011;3649;48.798;9.798;2024-02-14T01:21:38;6.40;;;4.93;;
7215;SDS011;3649;48.798;9.798;2024-02-14T01:24:05;6.30;;;4.90;;
7215;SDS011;3649;48.798;9.798;2024-02-14T01:26:35;12.97;;;4.87;;
7215;SDS011;3649;48.798;9.798;2024-02-14T01:29:02;8.60;;;5.10;;
7215;SDS011;3649;48.798;9.798;2024-02-14T01:31:28;5.77;;;4.57;;
7215;SDS011;3649;48.798;9.798;2024-02-14T01:33:55;7.80;;;6.57;;
7215;SDS011;3649;48.798;9.798;2024-02-14T01:36:24;5.87;;;5.27;;
7215;SDS011;3649;48.798;9.798;2024-02-14T01:38:51;9.87;;;5.00;;
7215;SDS011;3649;48.798;9.798;2024-02-14T01:41:17;9.47;;;6.30;;
7215;SDS011;3649;48.798;9.798;2024-02-14T01:43:45;9.67;;;5.53;;
7215;SDS011;3649;48.798;9.798;2024-02-14T01:46:12;6.00;;;4.90;;
7215;SDS011;3649;48.798;9.798;2024-02-14T01:48:39;7.73;;;5.07;;
7215;SDS011;3649;48.798;9.798;2024-02-14T01:51:08;6.13;;;5.27;;
7215;SDS011;3649;48.798;9.798;2024-02-14T01:53:37;7.97;;;5.37;;
7215;SDS011;3649;48.798;9.798;2024-02-14T01:56:04;6.57;;;4.90;;
7215;SDS011;3649;48.798;9.798;2024-02-14T01:58:32;6.90;;;4.43;;
7215;SDS011;3649;48.798;9.798;2024-02-14T02:01:00;6.70;;;5.73;;
7215;SDS011;3649;48.798;9.798;2024-02-14T02:03:29;9.43;;;5.90;;
7215;SDS011;3649;48.798;9.798;2024-02-14T02:05:56;6.00;;;5.40;;
7215;SDS011;3649;48.798;9.798;2024-02-14T02:08:24;7.47;;;5.63;;
7215;SDS011;3649;48.798;9.798;2024-02-14T02:10:51;7.63;;;5.17;;
7215;SDS011;3649;48.798;9.798;2024-02-14T02:13:18;6.60;;;4.77;;
7215;SDS011;3649;48.798;9.798;2024-02-14T02:15:45;5.73;;;4.90;;
7215;SDS011;3649;48.798;9.798;2024-02-14T02:18:13;6.17;;;4.60;;
7215;SDS011;3649;48.798;9.798;2024-02-14T02:20:41;7.13;;;5.27;;
7215;SDS011;3649;48.798;9.798;2024-02-14T02:23:12;7.93;;;5.00;;
7215;SDS011;3649;48.798;9.798;2024-02-14T02:25:42;6.63;;;5.10;;
7215;SDS011;3649;48.798;9.798;2024-02-14T02:28:10;6.17;;;5.30;;
7215;SDS011;3649;48.798;9.798;2024-02-14T02:30:37;8.07;;;5.43;;
7215;SDS011;3649;48.798;9.798;2024-02-14T02:33:04;5.67;;;5.07;;
7215;SDS011;3649;48.798;9.798;2024-02-14T02:35:33;8.80;;;5.87;;
7215;SDS011;3649;48.798;9.798;2024-02-14T02:38:00;9.87;;;5.67;;
7215;SDS011;3649;48.798;9.798;2024-02-14T02:40:27;8.07;;;5.90;;
7215;SDS011;3649;48.798;9.798;2024-02-14T02:42:54;6.57;;;5.53;;
7215;SDS011;3649;48.798;9.798;2024-02-14T02:45:21;6.47;;;4.77;;
7215;SDS011;3649;48.798;9.798;2024-02-14T02:47:48;6.20;;;5.00;;
7215;SDS011;3649;48.798;9.798;2024-02-14T02:50:18;5.30;;;4.80;;
7215;SDS011;3649;48.798;9.798;2024-02-14T02:52:46;9.47;;;5.00;;
7215;SDS011;3649;48.798;9.798;2024-02-14T02:55:13;5.23;;;4.77;;
7215;SDS011;3649;48.798;9.798;2024-02-14T02:57:43;7.60;;;5.43;;
7215;SDS011;3649;48.798;9.798;2024-02-14T03:00:12;7.77;;;5.43;;
7215;SDS011;3649;48.798;9.798;2024-02-14T03:02:40;6.33;;;4.90;;
7215;SDS011;3649;48.798;9.798;2024-02-14T03:05:12;6.47;;;5.40;;
7215;SDS011;3649;48.798;9.798;2024-02-14T03:07:45;5.00;;;4.50;;
7215;SDS011;3649;48.798;9.798;2024-02-14T03:10:14;7.03;;;5.03;;
7215;SDS011;3649;48.798;9.798;2024-02-14T03:12:46;8.43;;;5.00;;
7215;SDS011;3649;48.798;9.798;2024-02-14T03:15:13;6.07;;;5.30;;
7215;SDS011;3649;48.798;9.798;2024-02-14T03:17:41;5.80;;;5.20;;
7215;SDS011;3649;48.798;9.798;2024-02-14T03:20:11;6.97;;;5.30;;
7215;SDS011;3649;48.798;9.798;2024-02-14T03:22:43;9.70;;;5.43;;
7215;SDS011;3649;48.798;9.798;2024-02-14T03:25:16;6.50;;;5.47;;
7215;SDS011;3649;48.798;9.798;2024-02-14T03:27:43;5.90;;;5.13;;
7215;SDS011;3649;48.798;9.798;2024-02-14T03:30:14;7.80;;;4.97;;
7215;SDS011;3649;48.798;9.798;2024-02-14T03:32:43;4.73;;;4.27;;
7215;SDS011;3649;48.798;9.798;2024-02-14T03:35:10;7.93;;;5.30;;
7215;SDS011;3649;48.798;9.798;2024-02-14T03:37:40;5.73;;;5.13;;
7215;SDS011;3649;48.798;9.798;2024-02-14T03:40:08;6.70;;;5.10;;
7215;SDS011;3649;48.798;9.798;2024-02-14T03:42:36;6.77;;;5.53;;
7215;SDS011;3649;48.798;9.798;2024-02-14T03:45:09;6.43;;;5.07;;
7215;SDS011;3649;48.798;9.798;2024-02-14T03:47:36;5.37;;;4.60;;
7215;SDS011;3649;48.798;9.798;2024-02-14T03:50:09;7.80;;;5.53;;
7215;SDS011;3649;48.798;9.798;2024-02-14T03:52:36;5.67;;;5.03;;
7215;SDS011;3649;48.798;9.798;2024-02-14T03:55:04;5.93;;;5.00;;
7215;SDS011;3649;48.798;9.798;2024-02-14T03:57:32;5.07;;;4.57;;
7215;SDS011;3649;48.798;9.798;2024-02-14T04:00:01;8.93;;;5.03;;
7215;SDS011;3649;48.798;9.798;2024-02-14T04:02:29;7.47;;;5.00;;
7215;SDS011;3649;48.798;9.798;2024-02-14T04:04:58;5.57;;;4.90;;
7215;SDS011;3649;48.798;9.798;2024-02-14T04:07:25;7.13;;;5.40;;
7215;SDS011;3649;48.798;9.798;2024-02-14T04:09:52;4.90;;;4.37;;
7215;SDS011;3649;48.798;9.798;2024-02-14T04:12:19;8.93;;;4.73;;
7215;SDS011;3649;48.798;9.798;2024-02-14T04:14:46;12.17;;;5.60;;
7215;SDS011;3649;48.798;9.798;2024-02-14T04:17:13;7.77;;;5.17;;
7215;SDS011;3649;48.798;9.798;2024-02-14T04:19:40;9.50;;;5.00;;
7215;SDS011;3649;48.798;9.798;2024-02-14T04:22:07;19.40;;;8.90;;
7215;SDS011;3649;48.798;9.798;2024-02-14T04:24:35;20.83;;;10.40;;
7215;SDS011;3649;48.798;9.798;2024-02-14T04:27:02;23.47;;;11.20;;
7215;SDS011;3649;48.798;9.798;2024-02-14T04:29:31;19.93;;;11.13;;
7215;SDS011;3649;48.798;9.798;2024-02-14T04:32:00;15.77;;;8.13;;
7215;SDS011;3649;48.798;9.798;2024-02-14T04:34:27;16.87;;;10.03;;
7215;SDS011;3649;48.798;9.798;2024-02-14T04:36:54;8.00;;;6.43;;
7215;SDS011;3649;48.798;9.798;2024-02-14T04:39:21;18.33;;;7.50;;
7215;SDS011;3649;48.798;9.798;2024-02-14T04:41:48;8.80;;;5.93;;
7215;SDS011;3649;48.798;9.798;2024-02-14T04:44:27;7.07;;;5.13;;
7215;SDS011;3649;48.798;9.798;2024-02-14T04:46:55;6.57;;;5.60;;
7215;SDS011;3649;48.798;9.798;2024-02-14T04:49:22;6.13;;;5.00;;
7215;SDS011;3649;48.798;9.798;2024-02-14T04:51:49;5.20;;;4.70;;
7215;SDS011;3649;48.798;9.798;2024-02-14T04:54:20;6.77;;;4.80;;
7215;SDS011;3649;48.798;9.798;2024-02-14T04:56:47;7.67;;;4.80;;
7215;SDS011;3649;48.798;9.798;2024-02-14T04:59:20;8.53;;;5.30;;
7215;SDS011;3649;48.798;9.798;2024-02-14T05:01:47;10.33;;;4.60;;
7215;SDS011;3649;48.798;9.798;2024-02-14T05:04:14;7.37;;;4.80;;
7215;SDS011;3649;48.798;9.798;2024-02-14T05:06:43;8.23;;;5.30;;
7215;SDS011;3649;48.798;9.798;2024-02-14T05:09:10;7.20;;;4.80;;
7215;SDS011;3649;48.798;9.798;2024-02-14T05:11:37;6.17;;;5.10;;
7215;SDS011;3649;48.798;9.798;2024-02-14T05:14:04;5.43;;;4.63;;
7215;SDS011;3649;48.798;9.798;2024-02-14T05:16:30;4.80;;;4.30;;
7215;SDS011;3649;48.798;9.798;2024-02-14T05:18:57;7.03;;;5.30;;
7215;SDS011;3649;48.798;9.798;2024-02-14T05:21:25;6.77;;;5.07;;
7215;SDS011;3649;48.798;9.798;2024-02-14T05:23:53;5.60;;;4.57;;
7215;SDS011;3649;48.798;9.798;2024-02-14T05:26:20;7.87;;;4.90;;
7215;SDS011;3649;48.798;9.798;2024-02-14T05:28:47;8.20;;;5.33;;
7215;SDS011;3649;48.798;9.798;2024-02-14T05:31:14;6.77;;;5.33;;
7215;SDS011;3649;48.798;9.798;2024-02-14T05:33:42;10.73;;;5.13;;
7215;SDS011;3649;48.798;9.798;2024-02-14T05:36:10;9.90;;;5.63;;
7215;SDS011;3649;48.798;9.798;2024-02-14T05:38:36;8.40;;;5.43;;
7215;SDS011;3649;48.798;9.798;2024-02-14T05:41:03;10.33;;;5.47;;
7215;SDS011;3649;48.798;9.798;2024-02-14T05:43:30;6.60;;;5.90;;
7215;SDS011;3649;48.798;9.798;2024-02-14T05:45:57;5.50;;;4.77;;
7215;SDS011;3649;48.798;9.798;2024-02-14T05:48:24;9.80;;;4.63;;
7215;SDS011;3649;48.798;9.798;2024-02-14T05:50:52;7.80;;;5.03;;
7215;SDS011;3649;48.798;9.798;2024-02-14T05:53:19;7.73;;;4.83;;
7215;SDS011;3649;48.798;9.798;2024-02-14T05:55:46;7.10;;;5.37;;
7215;SDS011;3649;48.798;9.798;2024-02-14T05:58:13;8.10;;;5.53;;
7215;SDS011;3649;48.798;9.798;2024-02-14T06:00:41;5.90;;;5.07;;
7215;SDS011;3649;48.798;9.798;2024-02-14T06:03:08;6.60;;;5.47;;
7215;SDS011;3649;48.798;9.798;2024-02-14T06:05:35;6.93;;;6.10;;
7215;SDS011;3649;48.798;9.798;2024-02-14T06:08:02;9.83;;;5.30;;
7215;SDS011;3649;48.798;9.798;2024-02-14T06:10:29;9.03;;;5.37;;
7215;SDS011;3649;48.798;9.798;2024-02-14T06:12:56;6.53;;;5.20;;
7215;SDS011;3649;48.798;9.798;2024-02-14T06:15:23;8.47;;;5.80;;
7215;SDS011;3649;48.798;9.798;2024-02-14T06:17:50;10.07;;;5.30;;
7215;SDS011;3649;48.798;9.798;2024-02-14T06:20:17;9.47;;;6.67;;
7215;SDS011;3649;48.798;9.798;2024-02-14T06:22:45;11.67;;;5.83;;
7215;SDS011;3649;48.798;9.798;2024-02-14T06:25:26;13.17;;;6.10;;
7215;SDS011;3649;48.798;9.798;2024-02-14T06:27:53;10.33;;;6.30;;
7215;SDS011;3649;48.798;9.798;2024-02-14T06:30:22;7.70;;;6.03;;
7215;SDS011;3649;48.798;9.798;2024-02-14T06:32:50;8.93;;;6.17;;
7215;SDS011;3649;48.798;9.798;2024-02-14T06:35:18;8.33;;;6.03;;
7215;SDS011;3649;48.798;9.798;2024-02-14T06:37:47;7.57;;;6.23;;
7215;SDS011;3649;48.798;9.798;2024-02-14T06:40:28;8.87;;;5.43;;
7215;SDS011;3649;48.798;9.798;2024-02-14T06:42:56;7.00;;;5.47;;
7215;SDS011;3649;48.798;9.798;2024-02-14T06:45:28;6.90;;;5.97;;
7215;SDS011;3649;48.798;9.798;2024-02-14T06:47:55;5.73;;;5.00;;
7215;SDS011;3649;48.798;9.798;2024-02-14T06:50:22;6.70;;;4.63;;
7215;SDS011;3649;48.798;9.798;2024-02-14T06:52:52;8.13;;;6.17;;
7215;SDS011;3649;48.798;9.798;2024-02-14T06:55:19;12.00;;;6.30;;
7215;SDS011;3649;48.798;9.798;2024-02-14T06:57:46;8.77;;;5.40;;
7215;SDS011;3649;48.798;9.798;2024-02-14T07:00:13;6.33;;;5.07;;
7215;SDS011;3649;48.798;9.798;2024-02-14T07:02:40;7.67;;;5.37;;
7215;SDS011;3649;48.798;9.798;2024-02-14T07:05:07;9.30;;;5.60;;
7215;SDS011;3649;48.798;9.798;2024-02-14T07:07:38;6.53;;;5.30;;
7215;SDS011;3649;48.798;9.798;2024-02-14T07:10:05;7.57;;;5.37;;
7215;SDS011;3649;48.798;9.798;2024-02-14T07:12:33;8.40;;;5.50;;
7215;SDS011;3649;48.798;9.798;2024-02-14T07:15:00;10.73;;;5.37;;
7215;SDS011;3649;48.798;9.798;2024-02-14T07:17:27;9.73;;;5.83;;
7215;SDS011;3649;48.798;9.798;2024-02-14T07:19:53;12.00;;;6.20;;
7215;SDS011;3649;48.798;9.798;2024-02-14T07:22:20;7.60;;;5.60;;
7215;SDS011;3649;48.798;9.798;2024-02-14T07:24:48;12.17;;;6.37;;
7215;SDS011;3649;48.798;9.798;2024-02-14T07:27:15;10.73;;;6.67;;
7215;SDS011;3649;48.798;9.798;2024-02-14T07:29:43;10.97;;;5.63;;
7215;SDS011;3649;48.798;9.798;2024-02-14T07:32:11;8.07;;;5.43;;
7215;SDS011;3649;48.798;9.798;2024-02-14T07:34:41;10.60;;;5.83;;
7215;SDS011;3649;48.798;9.798;2024-02-14T07:37:08;8.87;;;5.17;;
7215;SDS011;3649;48.798;9.798;2024-02-14T07:39:35;5.97;;;4.83;;
7215;SDS011;3649;48.798;9.798;2024-02-14T07:42:02;9.40;;;6.10;;
7215;SDS011;3649;48.798;9.798;2024-02-14T07:44:30;8.03;;;5.20;;
7215;SDS011;3649;48.798;9.798;2024-02-14T07:46:57;8.57;;;5.77;;
7215;SDS011;3649;48.798;9.798;2024-02-14T07:49:29;7.30;;;5.73;;
7215;SDS011;3649;48.798;9.798;2024-02-14T07:51:58;7.77;;;5.63;;
7215;SDS011;3649;48.798;9.798;2024-02-14T07:54:25;6.63;;;5.90;;
7215;SDS011;3649;48.798;9.798;2024-02-14T07:56:52;9.27;;;5.70;;
7215;SDS011;3649;48.798;9.798;2024-02-14T07:59:19;12.20;;;5.97;;
7215;SDS011;3649;48.798;9.798;2024-02-14T08:01:47;12.13;;;6.37;;
7215;SDS011;3649;48.798;9.798;2024-02-14T08:04:14;9.70;;;5.77;;
7215;SDS011;3649;48.798;9.798;2024-02-14T08:06:44;8.80;;;5.80;;
7215;SDS011;3649;48.798;9.798;2024-02-14T08:09:12;9.03;;;5.63;;
7215;SDS011;3649;48.798;9.798;2024-02-14T08:11:39;8.70;;;6.20;;
7215;SDS011;3649;48.798;9.798;2024-02-14T08:14:07;6.63;;;5.57;;
7215;SDS011;3649;48.798;9.798;2024-02-14T08:16:34;10.00;;;5.47;;
7215;SDS011;3649;48.798;9.798;2024-02-14T08:19:02;6.47;;;5.30;;
7215;SDS011;3649;48.798;9.798;2024-02-14T08:21:30;9.67;;;5.50;;
7215;SDS011;3649;48.798;9.798;2024-02-14T08:23:58;8.83;;;5.40;;
7215;SDS011;3649;48.798;9.798;2024-02-14T08:26:27;7.20;;;5.70;;
7215;SDS011;3649;48.798;9.798;2024-02-14T08:28:55;17.73;;;5.93;;
7215;SDS011;3649;48.798;9.798;2024-02-14T08:31:21;14.30;;;6.60;;
7215;SDS011;3649;48.798;9.798;2024-02-14T08:33:49;8.80;;;6.30;;
7215;SDS011;3649;48.798;9.798;2024-02-14T08:36:16;9.10;;;6.13;;
7215;SDS011;3649;48.798;9.798;2024-02-14T08:38:46;10.93;;;7.33;;
7215;SDS011;3649;48.798;9.798;2024-02-14T08:41:14;12.47;;;7.27;;
7215;SDS011;3649;48.798;9.798;2024-02-14T08:43:40;10.73;;;7.13;;
7215;SDS011;3649;48.798;9.798;2024-02-14T08:46:13;8.23;;;7.27;;
7215;SDS011;3649;48.798;9.798;2024-02-14T08:48:41;11.63;;;6.77;;
7215;SDS011;3649;48.798;9.798;2024-02-14T08:51:14;7.33;;;5.83;;
7215;SDS011;3649;48.798;9.798;2024-02-14T08:53:41;5.60;;;4.83;;
7215;SDS011;3649;48.798;9.798;2024-02-14T08:56:10;6.10;;;5.00;;
7215;SDS011;3649;48.798;9.798;2024-02-14T08:58:37;5.20;;;4.67;;
7215;SDS011;3649;48.798;9.798;2024-02-14T09:01:05;5.93;;;4.30;;
7215;SDS011;3649;48.798;9.798;2024-02-14T09:03:40;5.23;;;4.63;;
7215;SDS011;3649;48.798;9.798;2024-02-14T09:06:15;6.70;;;4.30;;
7215;SDS011;3649;48.798;9.798;2024-02-14T09:08:46;6.57;;;4.23;;
7215;SDS011;3649;48.798;9.798;2024-02-14T09:11:14;6.20;;;4.83;;
7215;SDS011;3649;48.798;9.798;2024-02-14T09:13:41;6.63;;;4.20;;
7215;SDS011;3649;48.798;9.798;2024-02-14T09:16:08;5.00;;;4.50;;
7215;SDS011;3649;48.798;9.798;2024-02-14T09:18:35;7.20;;;4.43;;
7215;SDS011;3649;48.798;9.798;2024-02-14T09:21:03;10.27;;;4.50;;
7215;SDS011;3649;48.798;9.798;2024-02-14T09:23:32;6.60;;;4.20;;
7215;SDS011;3649;48.798;9.798;2024-02-14T09:25:59;6.97;;;4.50;;
7215;SDS011;3649;48.798;9.798;2024-02-14T09:28:28;5.27;;;3.97;;
7215;SDS011;3649;48.798;9.798;2024-02-14T09:30:55;7.30;;;4.53;;
7215;SDS011;3649;48.798;9.798;2024-02-14T09:33:22;7.70;;;4.20;;
7215;SDS011;3649;48.798;9.798;2024-02-14T09:35:49;8.17;;;3.80;;
7215;SDS011;3649;48.798;9.798;2024-02-14T09:38:19;7.90;;;3.83;;
7215;SDS011;3649;48.798;9.798;2024-02-14T09:40:46;7.17;;;4.77;;
7215;SDS011;3649;48.798;9.798;2024-02-14T09:46:12;4.93;;;3.37;;
7215;SDS011;3649;48.798;9.798;2024-02-14T09:48:40;5.27;;;3.57;;
7215;SDS011;3649;48.798;9.798;2024-02-14T09:51:11;6.03;;;3.80;;
7215;SDS011;3649;48.798;9.798;2024-02-14T09:53:39;5.73;;;4.07;;
7215;SDS011;3649;48.798;9.798;2024-02-14T09:56:10;6.20;;;4.07;;
7215;SDS011;3649;48.798;9.798;2024-02-14T09:58:39;6.27;;;3.93;;
7215;SDS011;3649;48.798;9.798;2024-02-14T10:01:07;5.87;;;3.33;;
7215;SDS011;3649;48.798;9.798;2024-02-14T10:03:34;3.93;;;3.33;;
7215;SDS011;3649;48.798;9.798;2024-02-14T10:06:02;4.03;;;3.57;;
7215;SDS011;3649;48.798;9.798;2024-02-14T10:08:30;4.50;;;2.97;;
7215;SDS011;3649;48.798;9.798;2024-02-14T10:10:58;5.80;;;3.03;;
7215;SDS011;3649;48.798;9.798;2024-02-14T10:13:28;4.47;;;3.10;;
7215;SDS011;3649;48.798;9.798;2024-02-14T10:15:56;6.63;;;3.67;;
7215;SDS011;3649;48.798;9.798;2024-02-14T10:18:23;3.17;;;2.53;;
7215;SDS011;3649;48.798;9.798;2024-02-14T10:20:57;4.57;;;3.13;;
7215;SDS011;3649;48.798;9.798;2024-02-14T10:23:24;5.97;;;3.50;;
7215;SDS011;3649;48.798;9.798;2024-02-14T10:25:53;6.30;;;3.30;;
7215;SDS011;3649;48.798;9.798;2024-02-14T10:28:22;3.23;;;2.73;;
7215;SDS011;3649;48.798;9.798;2024-02-14T10:31:01;4.50;;;3.03;;
7215;SDS011;3649;48.798;9.798;2024-02-14T10:33:28;3.63;;;2.90;;
7215;SDS011;3649;48.798;9.798;2024-02-14T10:35:58;6.47;;;2.80;;
7215;SDS011;3649;48.798;9.798;2024-02-14T10:38:31;5.27;;;2.93;;
7215;SDS011;3649;48.798;9.798;2024-02-14T10:41:02;4.27;;;2.37;;
7215;SDS011;3649;48.798;9.798;2024-02-14T10:43:30;2.70;;;2.50;;
7215;SDS011;3649;48.798;9.798;2024-02-14T10:46:00;2.30;;;2.10;;
7215;SDS011;3649;48.798;9.798;2024-02-14T10:48:34;2.87;;;2.07;;
7215;SDS011;3649;48.798;9.798;2024-02-14T10:51:05;2.30;;;2.10;;
7215;SDS011;3649;48.798;9.798;2024-02-14T10:53:34;2.40;;;2.20;;
7215;SDS011;3649;48.798;9.798;2024-02-14T10:56:03;4.47;;;2.20;;
7215;SDS011;3649;48.798;9.798;2024-02-14T10:58:30;4.57;;;3.13;;
7215;SDS011;3649;48.798;9.798;2024-02-14T11:01:01;2.40;;;2.20;;
7215;SDS011;3649;48.798;9.798;2024-02-14T11:03:28;2.43;;;2.00;;
7215;SDS011;3649;48.798;9.798;2024-02-14T11:06:00;5.00;;;2.43;;
7215;SDS011;3649;48.798;9.798;2024-02-14T11:08:30;2.50;;;2.30;;
7215;SDS011;3649;48.798;9.798;2024-02-14T11:10:59;2.47;;;2.03;;
7215;SDS011;3649;48.798;9.798;2024-02-14T11:13:28;3.60;;;1.97;;
7215;SDS011;3649;48.798;9.798;2024-02-14T11:16:02;2.53;;;1.80;;
7215;SDS011;3649;48.798;9.798;2024-02-14T11:18:31;1.70;;;1.60;;
7215;SDS011;3649;48.798;9.798;2024-02-14T11:21:03;1.87;;;1.77;;
7215;SDS011;3649;48.798;9.798;2024-02-14T11:23:31;3.23;;;2.03;;
7215;SDS011;3649;48.798;9.798;2024-02-14T11:25:59;3.37;;;2.00;;
7215;SDS011;3649;48.798;9.798;2024-02-14T11:28:28;3.30;;;1.70;;
7215;SDS011;3649;48.798;9.798;2024-02-14T11:31:01;1.93;;;1.77;;
7215;SDS011;3649;48.798;9.798;2024-02-14T11:33:30;2.63;;;2.23;;
7215;SDS011;3649;48.798;9.798;2024-02-14T11:35:59;3.53;;;2.07;;
7215;SDS011;3649;48.798;9.798;2024-02-14T11:38:37;3.00;;;1.80;;
7215;SDS011;3649;48.798;9.798;2024-02-14T11:41:07;1.70;;;1.60;;
7215;SDS011;3649;48.798;9.798;2024-02-14T11:43:35;3.07;;;2.13;;
7215;SDS011;3649;48.798;9.798;2024-02-14T11:46:02;5.10;;;2.13;;
7215;SDS011;3649;48.798;9.798;2024-02-14T11:48:31;2.40;;;1.57;;
7215;SDS011;3649;48.798;9.798;2024-02-14T11:50:58;2.70;;;1.93;;
7215;SDS011;3649;48.798;9.798;2024-02-14T11:53:25;2.37;;;2.07;;
7215;SDS011;3649;48.798;9.798;2024-02-14T11:55:55;3.23;;;1.63;;
7215;SDS011;3649;48.798;9.798;2024-02-14T11:58:23;1.87;;;1.73;;
7215;SDS011;3649;48.798;9.798;2024-02-14T12:00:49;2.90;;;1.67;;
7215;SDS011;3649;48.798;9.798;2024-02-14T12:03:17;3.40;;;1.40;;
7215;SDS011;3649;48.798;9.798;2024-02-14T12:05:46;1.60;;;1.50;;
7215;SDS011;3649;48.798;9.798;2024-02-14T12:08:14;2.00;;;1.80;;
7215;SDS011;3649;48.798;9.798;2024-02-14T12:10:42;8.67;;;2.57;;
7215;SDS011;3649;48.798;9.798;2024-02-14T12:13:13;3.30;;;1.40;;
7215;SDS011;3649;48.798;9.798;2024-02-14T12:15:45;4.47;;;1.67;;
7215;SDS011;3649;48.798;9.798;2024-02-14T12:18:13;3.23;;;1.67;;
7215;SDS011;3649;48.798;9.798;2024-02-14T12:20:41;1.70;;;1.60;;
7215;SDS011;3649;48.798;9.798;2024-02-14T12:23:15;1.63;;;1.53;;
7215;SDS011;3649;48.798;9.798;2024-02-14T12:25:47;1.57;;;1.47;;
7215;SDS011;3649;48.798;9.798;2024-02-14T12:28:17;2.10;;;1.30;;
7215;SDS011;3649;48.798;9.798;2024-02-14T12:30:49;3.80;;;1.50;;
7215;SDS011;3649;48.798;9.798;2024-02-14T12:33:23;2.60;;;1.40;;
7215;SDS011;3649;48.798;9.798;2024-02-14T12:35:51;2.00;;;1.80;;
7215;SDS011;3649;48.798;9.798;2024-02-14T12:38:21;2.10;;;1.53;;
7215;SDS011;3649;48.798;9.798;2024-02-14T12:40:49;2.47;;;1.47;;
7215;SDS011;3649;48.798;9.798;2024-02-14T12:43:20;1.50;;;1.40;;
7215;SDS011;3649;48.798;9.798;2024-02-14T12:45:48;2.40;;;1.30;;
7215;SDS011;3649;48.798;9.798;2024-02-14T12:48:21;2.07;;;1.70;;
7215;SDS011;3649;48.798;9.798;2024-02-14T12:50:53;2.53;;;1.57;;
7215;SDS011;3649;48.798;9.798;2024-02-14T12:53:21;1.93;;;1.33;;
7215;SDS011;3649;48.798;9.798;2024-02-14T12:55:48;1.43;;;1.33;;
7215;SDS011;3649;48.798;9.798;2024-02-14T12:58:15;1.40;;;1.40;;
7215;SDS011;3649;48.798;9.798;2024-02-14T13:00:42;1.63;;;1.50;;
7215;SDS011;3649;48.798;9.798;2024-02-14T13:03:11;3.37;;;1.90;;
7215;SDS011;3649;48.798;9.798;2024-02-14T13:05:42;3.17;;;1.70;;
7215;SDS011;3649;48.798;9.798;2024-02-14T13:08:09;2.53;;;1.57;;
7215;SDS011;3649;48.798;9.798;2024-02-14T13:10:37;2.27;;;1.60;;
7215;SDS011;3649;48.798;9.798;2024-02-14T13:13:04;1.43;;;1.37;;
7215;SDS011;3649;48.798;9.798;2024-02-14T13:15:32;2.23;;;1.10;;
7215;SDS011;3649;48.798;9.798;2024-02-14T13:17:58;3.63;;;1.30;;
7215;SDS011;3649;48.798;9.798;2024-02-14T13:20:27;1.37;;;1.27;;
7215;SDS011;3649;48.798;9.798;2024-02-14T13:22:55;1.50;;;1.40;;
7215;SDS011;3649;48.798;9.798;2024-02-14T13:25:22;2.60;;;1.30;;
7215;SDS011;3649;48.798;9.798;2024-02-14T13:27:49;1.37;;;1.27;;
7215;SDS011;3649;48.798;9.798;2024-02-14T13:30:16;1.93;;;1.60;;
7215;SDS011;3649;48.798;9.798;2024-02-14T13:32:45;1.67;;;1.10;;
7215;SDS011;3649;48.798;9.798;2024-02-14T13:35:12;4.03;;;1.27;;
7215;SDS011;3649;48.798;9.798;2024-02-14T13:37:40;2.60;;;1.60;;
7215;SDS011;3649;48.798;9.798;2024-02-14T13:40:07;1.40;;;1.30;;
7215;SDS011;3649;48.798;9.798;2024-02-14T13:42:37;3.37;;;1.70;;
7215;SDS011;3649;48.798;9.798;2024-02-14T13:45:07;7.90;;;1.70;;
7215;SDS011;3649;48.798;9.798;2024-02-14T13:47:38;3.13;;;1.40;;
7215;SDS011;3649;48.798;9.798;2024-02-14T13:50:07;3.17;;;1.30;;
7215;SDS011;3649;48.798;9.798;2024-02-14T13:52:35;1.43;;;1.33;;
7215;SDS011;3649;48.798;9.798;2024-02-14T13:55:03;2.00;;;1.67;;
7215;SDS011;3649;48.798;9.798;2024-02-14T13:57:33;2.47;;;1.73;;
7215;SDS011;3649;48.798;9.798;2024-02-14T14:00:02;1.90;;;1.57;;
7215;SDS011;3649;48.798;9.798;2024-02-14T14:02:30;1.13;;;1.13;;
7215;SDS011;3649;48.798;9.798;2024-02-14T14:04:57;3.10;;;1.30;;
7215;SDS011;3649;48.798;9.798;2024-02-14T14:07:24;1.30;;;1.30;;
7215;SDS011;3649;48.798;9.798;2024-02-14T14:09:51;5.03;;;1.40;;
7215;SDS011;3649;48.798;9.798;2024-02-14T14:12:17;1.23;;;1.23;;
7215;SDS011;3649;48.798;9.798;2024-02-14T14:14:44;1.13;;;1.03;;
7215;SDS011;3649;48.798;9.798;2024-02-14T14:17:11;1.33;;;1.23;;
7215;SDS011;3649;48.798;9.798;2024-02-14T14:19:38;1.17;;;1.07;;
7215;SDS011;3649;48.798;9.798;2024-02-14T14:22:06;1.40;;;1.30;;
7215;SDS011;3649;48.798;9.798;2024-02-14T14:24:32;1.47;;;1.10;;
7215;SDS011;3649;48.798;9.798;2024-02-14T14:26:59;1.10;;;1.10;;
7215;SDS011;3649;48.798;9.798;2024-02-14T14:29:27;2.27;;;1.23;;
7215;SDS011;3649;48.798;9.798;2024-02-14T14:31:54;1.40;;;1.30;;
7215;SDS011;3649;48.798;9.798;2024-02-14T14:34:21;1.07;;;1.07;;
7215;SDS011;3649;48.798;9.798;2024-02-14T14:36:48;1.50;;;1.40;;
7215;SDS011;3649;48.798;9.798;2024-02-14T14:39:15;1.70;;;1.60;;
7215;SDS011;3649;48.798;9.798;2024-02-14T14:41:42;0.87;;;0.87;;
7215;SDS011;3649;48.798;9.798;2024-02-14T14:44:10;1.83;;;1.20;;
7215;SDS011;3649;48.798;9.798;2024-02-14T14:46:38;1.20;;;1.13;;
7215;SDS011;3649;48.798;9.798;2024-02-14T14:49:08;2.40;;;1.23;;
7215;SDS011;3649;48.798;9.798;2024-02-14T14:51:36;1.80;;;1.33;;
7215;SDS011;3649;48.798;9.798;2024-02-14T14:54:04;2.20;;;1.13;;
7215;SDS011;3649;48.798;9.798;2024-02-14T14:56:31;1.03;;;1.03;;
7215;SDS011;3649;48.798;9.798;2024-02-14T14:58:58;1.30;;;1.23;;
7215;SDS011;3649;48.798;9.798;2024-02-14T15:01:29;1.20;;;1.20;;
7215;SDS011;3649;48.798;9.798;2024-02-14T15:03:56;1.07;;;1.07;;
7215;SDS011;3649;48.798;9.798;2024-02-14T15:06:26;2.30;;;0.90;;
7215;SDS011;3649;48.798;9.798;2024-02-14T15:08:53;1.17;;;1.10;;
7215;SDS011;3649;48.798;9.798;2024-02-14T15:11:20;1.13;;;1.03;;
7215;SDS011;3649;48.798;9.798;2024-02-14T15:13:48;4.10;;;1.30;;
7215;SDS011;3649;48.798;9.798;2024-02-14T15:16:15;1.10;;;1.10;;
7215;SDS011;3649;48.798;9.798;2024-02-14T15:18:41;2.97;;;1.20;;
7215;SDS011;3649;48.798;9.798;2024-02-14T15:21:10;0.97;;;0.97;;